sensor_id;sensor_type;location;lat;lon;timestamp;pressure;altitude;pressure_sealevel;temperature;humidity
9091;BME280;4581;42.416;25.598;2022-08-20T00:00:22;97986.00;;;26.15;65.86
9091;BME280;4581;42.416;25.598;2022-08-20T00:02:55;97958.75;;;25.98;65.68
9091;BME280;4581;42.416;25.598;2022-08-20T00:05:32;97989.03;;;26.14;66.97
9091;BME280;4581;42.416;25.598;2022-08-20T00:08:00;97984.59;;;26.13;66.47
9091;BME280;4581;42.416;25.598;2022-08-20T00:10:31;97972.56;;;26.03;66.55
9091;BME280;4581;42.416;25.598;2022-08-20T00:13:14;97981.91;;;26.07;66.60
9091;BME280;4581;42.416;25.598;2022-08-20T00:15:44;97965.69;;;25.96;66.90
9091;BME280;4581;42.416;25.598;2022-08-20T00:18:13;97987.16;;;26.04;66.04
9091;BME280;4581;42.416;25.598;2022-08-20T00:20:46;97953.91;;;25.85;65.89
9091;BME280;4581;42.416;25.598;2022-08-20T00:23:15;97972.63;;;25.93;66.40
9091;BME280;4581;42.416;25.598;2022-08-20T00:25:46;97982.25;;;25.96;66.66
9091;BME280;4581;42.416;25.598;2022-08-20T00:28:15;97939.97;;;25.67;66.91
9091;BME280;4581;42.416;25.598;2022-08-20T00:30:45;97969.63;;;25.85;67.83
9091;BME280;4581;42.416;25.598;2022-08-20T00:33:15;97942.13;;;25.70;67.03
9091;BME280;4581;42.416;25.598;2022-08-20T00:35:47;97968.25;;;25.87;66.99
9091;BME280;4581;42.416;25.598;2022-08-20T00:38:14;97951.72;;;25.82;66.96
9091;BME280;4581;42.416;25.598;2022-08-20T00:40:56;97963.50;;;25.93;66.69
9091;BME280;4581;42.416;25.598;2022-08-20T00:43:39;97964.31;;;25.93;66.47
9091;BME280;4581;42.416;25.598;2022-08-20T00:46:24;97964.91;;;25.90;67.02
9091;BME280;4581;42.416;25.598;2022-08-20T00:48:57;97937.44;;;25.70;67.01
9091;BME280;4581;42.416;25.598;2022-08-20T00:51:50;97940.78;;;25.67;68.05
9091;BME280;4581;42.416;25.598;2022-08-20T00:54:27;97957.28;;;25.72;68.10
9091;BME280;4581;42.416;25.598;2022-08-20T00:57:00;97952.31;;;25.74;67.48
9091;BME280;4581;42.416;25.598;2022-08-20T00:59:33;97945.44;;;25.72;67.80
9091;BME280;4581;42.416;25.598;2022-08-20T01:02:01;97945.16;;;25.73;67.90
9091;BME280;4581;42.416;25.598;2022-08-20T01:04:31;97942.97;;;25.70;68.05
9091;BME280;4581;42.416;25.598;2022-08-20T01:07:00;97948.47;;;25.75;67.53
9091;BME280;4581;42.416;25.598;2022-08-20T01:09:27;97927.75;;;25.73;68.10
9091;BME280;4581;42.416;25.598;2022-08-20T01:12:15;97945.63;;;25.80;67.60
9091;BME280;4581;42.416;25.598;2022-08-20T01:14:44;97938.47;;;25.79;67.01
9091;BME280;4581;42.416;25.598;2022-08-20T01:17:18;97941.53;;;25.78;68.14
9091;BME280;4581;42.416;25.598;2022-08-20T01:19:52;97933.25;;;25.73;67.68
9091;BME280;4581;42.416;25.598;2022-08-20T01:22:31;97941.28;;;25.74;67.64
9091;BME280;4581;42.416;25.598;2022-08-20T01:25:27;97940.16;;;25.75;67.39
9091;BME280;4581;42.416;25.598;2022-08-20T01:27:55;97912.97;;;25.53;67.51
9091;BME280;4581;42.416;25.598;2022-08-20T01:30:25;97940.78;;;25.67;67.48
9091;BME280;4581;42.416;25.598;2022-08-20T01:32:53;97897.59;;;25.37;67.75
9091;BME280;4581;42.416;25.598;2022-08-20T01:35:25;97922.63;;;25.51;68.24
9091;BME280;4581;42.416;25.598;2022-08-20T01:37:56;97914.91;;;25.48;68.19
9091;BME280;4581;42.416;25.598;2022-08-20T01:43:22;97917.97;;;25.46;68.41
9091;BME280;4581;42.416;25.598;2022-08-20T01:45:51;97929.28;;;25.50;69.15
9091;BME280;4581;42.416;25.598;2022-08-20T01:48:23;97905.06;;;25.37;69.44
9091;BME280;4581;42.416;25.598;2022-08-20T01:51:14;97928.19;;;25.46;69.69
9091;BME280;4581;42.416;25.598;2022-08-20T01:53:44;97918.59;;;25.38;70.26
9091;BME280;4581;42.416;25.598;2022-08-20T01:56:15;97921.88;;;25.40;70.19
9091;BME280;4581;42.416;25.598;2022-08-20T01:58:46;97912.81;;;25.35;70.08
9091;BME280;4581;42.416;25.598;2022-08-20T02:04:13;97924.97;;;25.29;70.24
9091;BME280;4581;42.416;25.598;2022-08-20T02:06:45;97926.13;;;25.23;70.30
9091;BME280;4581;42.416;25.598;2022-08-20T02:09:27;97923.94;;;25.20;71.95
9091;BME280;4581;42.416;25.598;2022-08-20T02:11:56;97910.19;;;25.09;72.14
9091;BME280;4581;42.416;25.598;2022-08-20T02:14:24;97900.06;;;24.95;72.26
9091;BME280;4581;42.416;25.598;2022-08-20T02:16:52;97910.25;;;24.99;71.61
9091;BME280;4581;42.416;25.598;2022-08-20T02:19:46;97887.13;;;24.80;72.07
9091;BME280;4581;42.416;25.598;2022-08-20T02:22:33;97887.13;;;24.80;72.41
9091;BME280;4581;42.416;25.598;2022-08-20T02:25:06;97910.84;;;24.81;73.36
9091;BME280;4581;42.416;25.598;2022-08-20T02:27:36;97892.69;;;24.70;73.51
9091;BME280;4581;42.416;25.598;2022-08-20T02:30:10;97898.72;;;24.77;73.14
9091;BME280;4581;42.416;25.598;2022-08-20T02:32:54;97902.06;;;24.69;73.54
9091;BME280;4581;42.416;25.598;2022-08-20T02:35:23;97883.34;;;24.56;73.88
9091;BME280;4581;42.416;25.598;2022-08-20T02:37:50;97901.81;;;24.60;73.90
9091;BME280;4581;42.416;25.598;2022-08-20T02:40:22;97880.13;;;24.39;74.49
9091;BME280;4581;42.416;25.598;2022-08-20T02:42:59;97899.94;;;24.51;74.63
9091;BME280;4581;42.416;25.598;2022-08-20T02:45:28;97896.63;;;24.49;75.49
9091;BME280;4581;42.416;25.598;2022-08-20T02:47:56;97844.63;;;24.17;74.66
9091;BME280;4581;42.416;25.598;2022-08-20T02:50:28;97885.06;;;24.42;74.53
9091;BME280;4581;42.416;25.598;2022-08-20T02:52:55;97871.63;;;24.30;75.09
9091;BME280;4581;42.416;25.598;2022-08-20T02:55:22;97884.25;;;24.41;75.03
9091;BME280;4581;42.416;25.598;2022-08-20T02:57:58;97914.00;;;24.44;75.37
9091;BME280;4581;42.416;25.598;2022-08-20T03:00:27;97903.53;;;24.41;75.59
9091;BME280;4581;42.416;25.598;2022-08-20T03:03:07;97906.28;;;24.46;75.63
9091;BME280;4581;42.416;25.598;2022-08-20T03:05:36;97914.56;;;24.46;75.70
9091;BME280;4581;42.416;25.598;2022-08-20T03:08:06;97892.53;;;24.36;75.57
9091;BME280;4581;42.416;25.598;2022-08-20T03:10:37;97891.16;;;24.39;75.79
9091;BME280;4581;42.416;25.598;2022-08-20T03:13:07;97905.47;;;24.41;75.32
9091;BME280;4581;42.416;25.598;2022-08-20T03:15:44;97903.53;;;24.46;75.51
9091;BME280;4581;42.416;25.598;2022-08-20T03:18:12;97902.69;;;24.46;75.19
9091;BME280;4581;42.416;25.598;2022-08-20T03:20:40;97920.34;;;24.50;75.07
9091;BME280;4581;42.416;25.598;2022-08-20T03:23:09;97871.63;;;24.20;74.66
9091;BME280;4581;42.416;25.598;2022-08-20T03:25:36;97901.09;;;24.35;75.37
9091;BME280;4581;42.416;25.598;2022-08-20T03:28:03;97911.28;;;24.34;75.68
9091;BME280;4581;42.416;25.598;2022-08-20T03:30:31;97912.13;;;24.24;75.86
9091;BME280;4581;42.416;25.598;2022-08-20T03:32:58;97922.56;;;24.28;76.28
9091;BME280;4581;42.416;25.598;2022-08-20T03:35:27;97917.09;;;24.22;76.81
9091;BME280;4581;42.416;25.598;2022-08-20T03:37:54;97922.88;;;24.21;76.16
9091;BME280;4581;42.416;25.598;2022-08-20T03:40:31;97914.88;;;24.04;76.88
9091;BME280;4581;42.416;25.598;2022-08-20T03:42:58;97906.59;;;24.04;76.48
9091;BME280;4581;42.416;25.598;2022-08-20T03:45:28;97918.72;;;24.13;76.88
9091;BME280;4581;42.416;25.598;2022-08-20T03:47:57;97920.38;;;24.19;76.76
9091;BME280;4581;42.416;25.598;2022-08-20T03:50:26;97923.44;;;24.18;76.33
9091;BME280;4581;42.416;25.598;2022-08-20T03:52:54;97921.47;;;24.08;77.01
9091;BME280;4581;42.416;25.598;2022-08-20T03:55:26;97920.38;;;24.09;77.27
9091;BME280;4581;42.416;25.598;2022-08-20T03:57:56;97903.31;;;23.92;77.40
9091;BME280;4581;42.416;25.598;2022-08-20T04:00:37;97909.34;;;23.99;77.38
9091;BME280;4581;42.416;25.598;2022-08-20T04:03:14;97924.78;;;24.00;77.16
9091;BME280;4581;42.416;25.598;2022-08-20T04:05:43;97923.69;;;24.01;77.70
9091;BME280;4581;42.416;25.598;2022-08-20T04:08:17;97922.31;;;24.04;77.75
9091;BME280;4581;42.416;25.598;2022-08-20T04:10:45;97905.78;;;23.84;78.22
9091;BME280;4581;42.416;25.598;2022-08-20T04:13:14;97905.00;;;23.83;78.53
9091;BME280;4581;42.416;25.598;2022-08-20T04:15:43;97923.94;;;24.00;79.69
9091;BME280;4581;42.416;25.598;2022-08-20T04:18:16;97899.19;;;23.85;79.32
9091;BME280;4581;42.416;25.598;2022-08-20T04:21:07;97910.75;;;23.92;79.57
9091;BME280;4581;42.416;25.598;2022-08-20T04:23:34;97907.69;;;24.03;78.44
9091;BME280;4581;42.416;25.598;2022-08-20T04:26:01;97907.72;;;23.98;79.29
9091;BME280;4581;42.416;25.598;2022-08-20T04:28:27;97904.94;;;24.03;79.52
9091;BME280;4581;42.416;25.598;2022-08-20T04:30:59;97923.44;;;24.18;79.72
9091;BME280;4581;42.416;25.598;2022-08-20T04:33:28;97900.53;;;24.07;79.67
9091;BME280;4581;42.416;25.598;2022-08-20T04:36:02;97941.56;;;24.44;79.42
9091;BME280;4581;42.416;25.598;2022-08-20T04:38:35;97931.94;;;24.47;79.05
9091;BME280;4581;42.416;25.598;2022-08-20T04:41:20;97926.69;;;24.50;78.10
9091;BME280;4581;42.416;25.598;2022-08-20T04:43:55;97931.56;;;24.68;77.95
9091;BME280;4581;42.416;25.598;2022-08-20T04:46:25;97939.81;;;24.79;78.29
9091;BME280;4581;42.416;25.598;2022-08-20T04:48:54;97919.38;;;24.80;78.16
9091;BME280;4581;42.416;25.598;2022-08-20T04:51:22;97913.03;;;24.89;77.23
9091;BME280;4581;42.416;25.598;2022-08-20T04:53:52;97939.88;;;25.28;74.03
9091;BME280;4581;42.416;25.598;2022-08-20T04:56:22;97936.22;;;25.42;71.96
9091;BME280;4581;42.416;25.598;2022-08-20T04:58:51;97924.84;;;25.49;71.07
9091;BME280;4581;42.416;25.598;2022-08-20T05:01:19;97942.41;;;25.68;70.63
9091;BME280;4581;42.416;25.598;2022-08-20T05:03:47;97925.84;;;25.68;70.83
9091;BME280;4581;42.416;25.598;2022-08-20T05:06:14;97914.50;;;25.75;71.36
9091;BME280;4581;42.416;25.598;2022-08-20T05:08:49;97950.72;;;26.02;70.98
9091;BME280;4581;42.416;25.598;2022-08-20T05:11:19;97919.28;;;25.93;70.62
9091;BME280;4581;42.416;25.598;2022-08-20T05:14:06;97929.56;;;26.16;70.94
9091;BME280;4581;42.416;25.598;2022-08-20T05:16:39;97955.75;;;26.58;70.43
9091;BME280;4581;42.416;25.598;2022-08-20T05:19:09;97953.63;;;26.49;69.12
9091;BME280;4581;42.416;25.598;2022-08-20T05:21:36;97930.34;;;26.56;69.10
9091;BME280;4581;42.416;25.598;2022-08-20T05:24:08;97949.28;;;26.67;66.30
9091;BME280;4581;42.416;25.598;2022-08-20T05:26:38;97959.84;;;26.89;65.76
9091;BME280;4581;42.416;25.598;2022-08-20T05:29:05;97922.00;;;26.84;66.22
9091;BME280;4581;42.416;25.598;2022-08-20T05:31:33;97957.69;;;27.28;63.72
9091;BME280;4581;42.416;25.598;2022-08-20T05:34:06;97964.38;;;27.46;63.63
9091;BME280;4581;42.416;25.598;2022-08-20T05:36:38;97937.31;;;27.62;62.27
9091;BME280;4581;42.416;25.598;2022-08-20T05:39:06;97940.44;;;27.74;62.08
9091;BME280;4581;42.416;25.598;2022-08-20T05:41:34;97951.84;;;28.05;64.15
9091;BME280;4581;42.416;25.598;2022-08-20T05:44:01;97936.28;;;28.09;63.13
9091;BME280;4581;42.416;25.598;2022-08-20T05:46:29;97945.53;;;28.50;62.19
9091;BME280;4581;42.416;25.598;2022-08-20T05:48:59;97961.53;;;28.86;59.81
9091;BME280;4581;42.416;25.598;2022-08-20T05:51:29;97952.06;;;29.14;57.28
9091;BME280;4581;42.416;25.598;2022-08-20T05:53:56;97942.78;;;29.46;56.45
9091;BME280;4581;42.416;25.598;2022-08-20T05:56:25;97965.34;;;29.80;54.06
9091;BME280;4581;42.416;25.598;2022-08-20T05:58:53;97952.00;;;30.04;54.33
9091;BME280;4581;42.416;25.598;2022-08-20T06:01:21;97977.59;;;30.37;52.46
9091;BME280;4581;42.416;25.598;2022-08-20T06:03:58;97953.97;;;30.48;56.89
9091;BME280;4581;42.416;25.598;2022-08-20T06:06:44;97957.56;;;30.27;57.28
9091;BME280;4581;42.416;25.598;2022-08-20T06:09:15;97971.47;;;30.27;51.67
9091;BME280;4581;42.416;25.598;2022-08-20T06:12:01;97949.53;;;30.25;53.71
9091;BME280;4581;42.416;25.598;2022-08-20T06:14:29;97976.78;;;30.59;51.69
9091;BME280;4581;42.416;25.598;2022-08-20T06:17:02;97980.34;;;31.13;51.27
9091;BME280;4581;42.416;25.598;2022-08-20T06:19:30;97969.72;;;31.23;50.31
9091;BME280;4581;42.416;25.598;2022-08-20T06:22:09;97989.91;;;31.46;47.69
9091;BME280;4581;42.416;25.598;2022-08-20T06:24:47;97987.38;;;31.75;47.22
9091;BME280;4581;42.416;25.598;2022-08-20T06:27:15;97971.00;;;31.65;51.26
9091;BME280;4581;42.416;25.598;2022-08-20T06:29:42;97968.84;;;31.71;47.61
9091;BME280;4581;42.416;25.598;2022-08-20T06:32:09;97952.88;;;31.45;46.89
9091;BME280;4581;42.416;25.598;2022-08-20T06:34:36;97952.63;;;31.73;46.88
9091;BME280;4581;42.416;25.598;2022-08-20T06:37:19;97977.88;;;31.68;50.88
9091;BME280;4581;42.416;25.598;2022-08-20T06:39:46;97937.09;;;31.24;49.47
9091;BME280;4581;42.416;25.598;2022-08-20T06:42:14;97966.53;;;31.55;49.66
9091;BME280;4581;42.416;25.598;2022-08-20T06:44:47;97949.31;;;31.71;46.71
9091;BME280;4581;42.416;25.598;2022-08-20T06:47:18;97965.75;;;31.72;49.37
9091;BME280;4581;42.416;25.598;2022-08-20T06:49:46;97973.81;;;32.08;48.85
9091;BME280;4581;42.416;25.598;2022-08-20T06:52:14;97988.59;;;32.09;48.82
9091;BME280;4581;42.416;25.598;2022-08-20T06:54:43;97962.50;;;32.13;46.10
9091;BME280;4581;42.416;25.598;2022-08-20T06:57:10;97966.72;;;32.28;46.21
9091;BME280;4581;42.416;25.598;2022-08-20T06:59:38;97973.75;;;32.42;47.00
9091;BME280;4581;42.416;25.598;2022-08-20T07:02:07;97968.81;;;32.57;48.84
9091;BME280;4581;42.416;25.598;2022-08-20T07:04:34;97951.97;;;32.27;47.96
9091;BME280;4581;42.416;25.598;2022-08-20T07:07:03;97942.44;;;32.37;46.81
9091;BME280;4581;42.416;25.598;2022-08-20T07:09:32;97949.53;;;32.09;48.26
9091;BME280;4581;42.416;25.598;2022-08-20T07:12:00;97956.69;;;31.67;46.88
9091;BME280;4581;42.416;25.598;2022-08-20T07:14:28;97940.72;;;31.24;48.83
9091;BME280;4581;42.416;25.598;2022-08-20T07:16:55;97948.25;;;31.24;48.19
9091;BME280;4581;42.416;25.598;2022-08-20T07:19:22;97946.47;;;31.36;49.42
9091;BME280;4581;42.416;25.598;2022-08-20T07:21:49;97951.78;;;31.55;47.94
9091;BME280;4581;42.416;25.598;2022-08-20T07:24:16;97919.97;;;31.65;50.50
9091;BME280;4581;42.416;25.598;2022-08-20T07:26:43;97949.25;;;31.28;47.51
9091;BME280;4581;42.416;25.598;2022-08-20T07:29:10;97939.84;;;31.15;50.78
9091;BME280;4581;42.416;25.598;2022-08-20T07:31:36;97930.81;;;31.58;48.07
9091;BME280;4581;42.416;25.598;2022-08-20T07:34:24;97921.28;;;31.84;47.63
9091;BME280;4581;42.416;25.598;2022-08-20T07:36:52;97942.59;;;32.23;46.42
9091;BME280;4581;42.416;25.598;2022-08-20T07:39:20;97933.09;;;32.24;45.83
9091;BME280;4581;42.416;25.598;2022-08-20T07:41:47;97926.34;;;32.34;45.30
9091;BME280;4581;42.416;25.598;2022-08-20T07:44:30;97942.72;;;32.53;44.72
9091;BME280;4581;42.416;25.598;2022-08-20T07:46:57;97957.16;;;32.46;44.65
9091;BME280;4581;42.416;25.598;2022-08-20T07:49:24;97921.41;;;32.31;45.84
9091;BME280;4581;42.416;25.598;2022-08-20T07:51:51;97936.31;;;32.52;45.30
9091;BME280;4581;42.416;25.598;2022-08-20T07:54:18;97933.78;;;32.76;44.75
9091;BME280;4581;42.416;25.598;2022-08-20T07:56:46;97944.09;;;32.93;44.13
9091;BME280;4581;42.416;25.598;2022-08-20T07:59:15;97925.78;;;33.13;44.56
9091;BME280;4581;42.416;25.598;2022-08-20T08:01:41;97935.91;;;33.26;45.66
9091;BME280;4581;42.416;25.598;2022-08-20T08:04:10;97928.84;;;33.49;44.18
9091;BME280;4581;42.416;25.598;2022-08-20T08:06:40;97942.28;;;33.26;43.32
9091;BME280;4581;42.416;25.598;2022-08-20T08:09:12;97943.34;;;33.13;43.17
9091;BME280;4581;42.416;25.598;2022-08-20T08:11:44;97941.66;;;32.74;45.32
9091;BME280;4581;42.416;25.598;2022-08-20T08:14:20;97934.16;;;32.58;43.54
9091;BME280;4581;42.416;25.598;2022-08-20T08:16:53;97940.53;;;32.75;45.00
9091;BME280;4581;42.416;25.598;2022-08-20T08:19:20;97906.03;;;32.71;43.15
9091;BME280;4581;42.416;25.598;2022-08-20T08:21:48;97939.69;;;32.75;43.10
9091;BME280;4581;42.416;25.598;2022-08-20T08:24:24;97940.38;;;32.72;43.37
9091;BME280;4581;42.416;25.598;2022-08-20T08:26:54;97934.78;;;32.72;43.38
9091;BME280;4581;42.416;25.598;2022-08-20T08:29:20;97905.59;;;32.52;44.09
9091;BME280;4581;42.416;25.598;2022-08-20T08:31:50;97909.41;;;32.94;43.83
9091;BME280;4581;42.416;25.598;2022-08-20T08:34:17;97930.22;;;33.05;43.28
9091;BME280;4581;42.416;25.598;2022-08-20T08:36:43;97906.91;;;33.01;43.71
9091;BME280;4581;42.416;25.598;2022-08-20T08:39:10;97921.63;;;33.10;42.24
9091;BME280;4581;42.416;25.598;2022-08-20T08:41:45;97927.47;;;32.97;45.47
9091;BME280;4581;42.416;25.598;2022-08-20T08:44:29;97923.84;;;33.34;41.22
9091;BME280;4581;42.416;25.598;2022-08-20T08:47:02;97929.78;;;33.53;41.63
9091;BME280;4581;42.416;25.598;2022-08-20T08:49:33;97918.66;;;33.45;42.23
9091;BME280;4581;42.416;25.598;2022-08-20T08:52:09;97895.28;;;32.90;42.43
9091;BME280;4581;42.416;25.598;2022-08-20T08:54:42;97891.25;;;33.09;41.82
9091;BME280;4581;42.416;25.598;2022-08-20T08:57:11;97878.69;;;32.94;46.28
9091;BME280;4581;42.416;25.598;2022-08-20T08:59:38;97876.75;;;32.86;43.28
9091;BME280;4581;42.416;25.598;2022-08-20T09:02:32;97900.09;;;33.11;42.72
9091;BME280;4581;42.416;25.598;2022-08-20T09:05:11;97898.91;;;32.82;41.23
9091;BME280;4581;42.416;25.598;2022-08-20T09:07:41;97886.84;;;32.99;40.45
9091;BME280;4581;42.416;25.598;2022-08-20T09:10:11;97878.22;;;33.21;41.42
9091;BME280;4581;42.416;25.598;2022-08-20T09:12:39;97880.88;;;33.09;41.08
9091;BME280;4581;42.416;25.598;2022-08-20T09:15:19;97871.13;;;33.24;40.47
9091;BME280;4581;42.416;25.598;2022-08-20T09:17:48;97878.47;;;33.28;42.13
9091;BME280;4581;42.416;25.598;2022-08-20T09:20:14;97883.75;;;33.71;40.51
9091;BME280;4581;42.416;25.598;2022-08-20T09:22:43;97874.84;;;33.78;40.66
9091;BME280;4581;42.416;25.598;2022-08-20T09:25:13;97880.38;;;34.19;39.62
9091;BME280;4581;42.416;25.598;2022-08-20T09:27:41;97849.91;;;33.85;39.31
9091;BME280;4581;42.416;25.598;2022-08-20T09:30:11;97873.03;;;33.94;37.54
9091;BME280;4581;42.416;25.598;2022-08-20T09:32:39;97884.38;;;33.98;40.00
9091;BME280;4581;42.416;25.598;2022-08-20T09:35:07;97861.25;;;33.68;38.30
9091;BME280;4581;42.416;25.598;2022-08-20T09:37:35;97845.16;;;33.65;40.45
9091;BME280;4581;42.416;25.598;2022-08-20T09:40:06;97857.63;;;33.67;40.13
9091;BME280;4581;42.416;25.598;2022-08-20T09:42:36;97881.78;;;33.93;39.02
9091;BME280;4581;42.416;25.598;2022-08-20T09:45:10;97879.72;;;34.02;38.55
9091;BME280;4581;42.416;25.598;2022-08-20T09:47:38;97880.44;;;34.11;40.02
9091;BME280;4581;42.416;25.598;2022-08-20T09:50:22;97867.69;;;34.01;38.18
9091;BME280;4581;42.416;25.598;2022-08-20T09:52:51;97854.88;;;34.00;39.31
9091;BME280;4581;42.416;25.598;2022-08-20T09:55:30;97868.69;;;34.50;39.13
9091;BME280;4581;42.416;25.598;2022-08-20T10:00:51;97860.47;;;34.33;38.39
9091;BME280;4581;42.416;25.598;2022-08-20T10:03:19;97843.34;;;34.59;36.86
9091;BME280;4581;42.416;25.598;2022-08-20T10:05:46;97827.56;;;34.18;39.54
9091;BME280;4581;42.416;25.598;2022-08-20T10:08:13;97846.47;;;34.00;37.78
9091;BME280;4581;42.416;25.598;2022-08-20T10:10:40;97818.97;;;34.02;40.47
9091;BME280;4581;42.416;25.598;2022-08-20T10:13:07;97832.97;;;34.59;38.26
9091;BME280;4581;42.416;25.598;2022-08-20T10:15:38;97822.16;;;34.94;38.29
9091;BME280;4581;42.416;25.598;2022-08-20T10:18:07;97830.28;;;35.11;37.11
9091;BME280;4581;42.416;25.598;2022-08-20T10:20:37;97818.63;;;35.09;35.83
9091;BME280;4581;42.416;25.598;2022-08-20T10:23:04;97830.56;;;35.18;35.86
9091;BME280;4581;42.416;25.598;2022-08-20T10:25:31;97828.06;;;35.05;36.45
9091;BME280;4581;42.416;25.598;2022-08-20T10:27:57;97819.81;;;34.84;36.83
9091;BME280;4581;42.416;25.598;2022-08-20T10:30:25;97811.13;;;35.13;36.95
9091;BME280;4581;42.416;25.598;2022-08-20T10:32:54;97830.53;;;35.71;36.14
9091;BME280;4581;42.416;25.598;2022-08-20T10:35:21;97802.09;;;35.72;34.67
9091;BME280;4581;42.416;25.598;2022-08-20T10:37:48;97818.44;;;35.82;36.81
9091;BME280;4581;42.416;25.598;2022-08-20T10:40:15;97825.94;;;35.78;34.51
9091;BME280;4581;42.416;25.598;2022-08-20T10:42:44;97808.69;;;35.24;35.09
9091;BME280;4581;42.416;25.598;2022-08-20T10:45:14;97814.88;;;35.30;36.55
9091;BME280;4581;42.416;25.598;2022-08-20T10:47:42;97804.75;;;34.89;37.37
9091;BME280;4581;42.416;25.598;2022-08-20T10:50:14;97784.81;;;34.78;34.97
9091;BME280;4581;42.416;25.598;2022-08-20T10:52:42;97796.66;;;34.63;36.09
9091;BME280;4581;42.416;25.598;2022-08-20T10:55:09;97808.16;;;34.82;34.89
9091;BME280;4581;42.416;25.598;2022-08-20T10:57:38;97816.16;;;35.08;33.49
9091;BME280;4581;42.416;25.598;2022-08-20T11:00:06;97779.88;;;34.87;32.98
9091;BME280;4581;42.416;25.598;2022-08-20T11:02:36;97796.94;;;34.70;34.60
9091;BME280;4581;42.416;25.598;2022-08-20T11:05:04;97784.28;;;34.27;35.35
9091;BME280;4581;42.416;25.598;2022-08-20T11:07:34;97788.72;;;34.28;35.06
9091;BME280;4581;42.416;25.598;2022-08-20T11:10:23;97798.09;;;34.69;33.75
9091;BME280;4581;42.416;25.598;2022-08-20T11:12:56;97777.03;;;34.99;33.27
9091;BME280;4581;42.416;25.598;2022-08-20T11:15:23;97776.59;;;35.49;34.14
9091;BME280;4581;42.416;25.598;2022-08-20T11:17:50;97780.81;;;35.99;35.09
9091;BME280;4581;42.416;25.598;2022-08-20T11:20:31;97786.63;;;35.62;31.44
9091;BME280;4581;42.416;25.598;2022-08-20T11:23:12;97764.75;;;35.28;32.70
9091;BME280;4581;42.416;25.598;2022-08-20T11:25:39;97777.09;;;35.67;33.12
9091;BME280;4581;42.416;25.598;2022-08-20T11:28:06;97764.06;;;36.02;32.55
9091;BME280;4581;42.416;25.598;2022-08-20T11:30:35;97745.78;;;36.08;30.37
9091;BME280;4581;42.416;25.598;2022-08-20T11:33:03;97765.09;;;36.57;30.23
9091;BME280;4581;42.416;25.598;2022-08-20T11:35:32;97754.47;;;36.82;30.35
9091;BME280;4581;42.416;25.598;2022-08-20T11:38:14;97770.31;;;37.25;30.40
9091;BME280;4581;42.416;25.598;2022-08-20T11:40:41;97752.47;;;36.82;29.50
9091;BME280;4581;42.416;25.598;2022-08-20T11:43:08;97747.75;;;36.86;30.54
9091;BME280;4581;42.416;25.598;2022-08-20T11:45:45;97745.25;;;37.00;29.34
9091;BME280;4581;42.416;25.598;2022-08-20T11:48:14;97755.38;;;36.86;28.67
9091;BME280;4581;42.416;25.598;2022-08-20T11:50:42;97755.59;;;36.96;29.11
9091;BME280;4581;42.416;25.598;2022-08-20T11:53:09;97734.13;;;37.04;28.52
9091;BME280;4581;42.416;25.598;2022-08-20T11:55:36;97728.59;;;37.46;28.44
9091;BME280;4581;42.416;25.598;2022-08-20T11:58:05;97727.19;;;36.82;28.87
9091;BME280;4581;42.416;25.598;2022-08-20T12:00:32;97722.75;;;37.00;29.65
9091;BME280;4581;42.416;25.598;2022-08-20T12:03:03;97736.28;;;37.49;28.08
9091;BME280;4581;42.416;25.598;2022-08-20T12:05:34;97730.00;;;37.75;27.19
9091;BME280;4581;42.416;25.598;2022-08-20T12:08:00;97722.78;;;37.77;27.01
9091;BME280;4581;42.416;25.598;2022-08-20T12:10:30;97700.72;;;37.79;26.55
9091;BME280;4581;42.416;25.598;2022-08-20T12:12:58;97685.44;;;38.00;27.37
9091;BME280;4581;42.416;25.598;2022-08-20T12:15:31;97707.25;;;38.06;26.74
9091;BME280;4581;42.416;25.598;2022-08-20T12:17:58;97715.25;;;37.24;27.57
9091;BME280;4581;42.416;25.598;2022-08-20T12:20:27;97702.66;;;36.48;28.65
9091;BME280;4581;42.416;25.598;2022-08-20T12:22:54;97694.44;;;36.24;29.24
9091;BME280;4581;42.416;25.598;2022-08-20T12:25:20;97702.50;;;36.41;29.97
9091;BME280;4581;42.416;25.598;2022-08-20T12:27:50;97688.53;;;36.44;29.47
9091;BME280;4581;42.416;25.598;2022-08-20T12:30:22;97702.16;;;36.77;31.03
9091;BME280;4581;42.416;25.598;2022-08-20T12:32:51;97712.28;;;36.63;28.46
9091;BME280;4581;42.416;25.598;2022-08-20T12:35:18;97697.53;;;36.85;27.96
9091;BME280;4581;42.416;25.598;2022-08-20T12:37:45;97679.34;;;36.98;28.08
9091;BME280;4581;42.416;25.598;2022-08-20T12:40:29;97711.69;;;37.08;28.64
9091;BME280;4581;42.416;25.598;2022-08-20T12:42:59;97679.47;;;36.86;27.92
9091;BME280;4581;42.416;25.598;2022-08-20T12:45:26;97679.34;;;36.98;28.56
9091;BME280;4581;42.416;25.598;2022-08-20T12:47:59;97671.81;;;37.02;28.48
9091;BME280;4581;42.416;25.598;2022-08-20T12:50:28;97671.53;;;37.07;28.59
9091;BME280;4581;42.416;25.598;2022-08-20T12:52:57;97677.16;;;37.07;28.06
9091;BME280;4581;42.416;25.598;2022-08-20T12:55:26;97681.56;;;36.89;28.74
9091;BME280;4581;42.416;25.598;2022-08-20T12:57:55;97693.91;;;37.03;28.40
9091;BME280;4581;42.416;25.598;2022-08-20T13:00:40;97701.22;;;36.89;28.32
9091;BME280;4581;42.416;25.598;2022-08-20T13:03:14;97691.06;;;36.84;28.51
9091;BME280;4581;42.416;25.598;2022-08-20T13:05:42;97689.00;;;36.81;28.53
9091;BME280;4581;42.416;25.598;2022-08-20T13:08:10;97692.28;;;36.83;28.91
9091;BME280;4581;42.416;25.598;2022-08-20T13:10:40;97691.81;;;36.81;28.94
9091;BME280;4581;42.416;25.598;2022-08-20T13:13:14;97686.06;;;36.74;29.00
9091;BME280;4581;42.416;25.598;2022-08-20T13:15:46;97665.44;;;36.51;28.45
9091;BME280;4581;42.416;25.598;2022-08-20T13:18:13;97646.44;;;36.29;28.77
9091;BME280;4581;42.416;25.598;2022-08-20T13:20:40;97657.91;;;36.08;29.48
9091;BME280;4581;42.416;25.598;2022-08-20T13:23:07;97657.59;;;35.94;28.86
9091;BME280;4581;42.416;25.598;2022-08-20T13:25:33;97627.53;;;35.35;29.72
9091;BME280;4581;42.416;25.598;2022-08-20T13:28:02;97664.16;;;35.54;29.18
9091;BME280;4581;42.416;25.598;2022-08-20T13:30:31;97653.31;;;35.25;31.85
9091;BME280;4581;42.416;25.598;2022-08-20T13:33:02;97636.34;;;35.34;30.38
9091;BME280;4581;42.416;25.598;2022-08-20T13:35:34;97637.16;;;35.50;29.07
9091;BME280;4581;42.416;25.598;2022-08-20T13:38:01;97625.22;;;35.53;29.63